Time;durP1;ratioP1;P1;durP2;ratioP2;P2;SDS_P1;SDS_P2;PMS_P1;PMS_P2;Temp;Humidity;BMP_temperature;BMP_pressure;BME280_temperature;BME280_humidity;BME280_pressure;Samples;Min_cycle;Max_cycle;Signal;HPM_P1;HPM_P2
2022/09/07 00:00:51;;;;;;;6.20;3.30;;;19.90;99.90;;;;;;5063936;28;25138;-70
2022/09/07 00:03:17;;;;;;;8.27;2.90;;;19.70;99.90;;;;;;5060001;28;25125;-69
2022/09/07 00:05:45;;;;;;;10.70;2.50;;;19.60;99.90;;;;;;5062771;28;25120;-75
2022/09/07 00:08:11;;;;;;;3.60;2.92;;;19.70;99.90;;;;;;5061193;28;25056;-72
2022/09/07 00:10:37;;;;;;;4.00;2.92;;;19.60;99.90;;;;;;5054639;28;25050;-73
2022/09/07 00:13:04;;;;;;;6.13;3.58;;;19.70;99.90;;;;;;5064339;28;25069;-73
2022/09/07 00:15:30;;;;;;;7.70;3.97;;;19.70;99.90;;;;;;5054815;28;25146;-76
2022/09/07 00:17:55;;;;;;;6.97;3.40;;;19.70;99.90;;;;;;5061133;28;25088;-72
2022/09/07 00:20:21;;;;;;;9.55;4.15;;;19.80;99.90;;;;;;5062556;28;25064;-74
2022/09/07 00:22:47;;;;;;;7.43;4.43;;;19.90;99.90;;;;;;5063303;28;25069;-74
2022/09/07 00:25:12;;;;;;;7.60;4.85;;;19.90;99.90;;;;;;5061508;28;25121;-72
2022/09/07 00:27:38;;;;;;;12.73;4.85;;;19.90;99.90;;;;;;5063470;28;25070;-73
2022/09/07 00:30:05;;;;;;;8.23;4.68;;;19.90;99.90;;;;;;5058061;28;25048;-73
2022/09/07 00:32:30;;;;;;;9.25;4.60;;;20.00;99.90;;;;;;5061759;28;25106;-73
2022/09/07 00:34:56;;;;;;;12.18;5.53;;;20.10;99.90;;;;;;5061783;28;25095;-75
2022/09/07 00:37:22;;;;;;;8.55;4.90;;;20.10;99.90;;;;;;5057295;28;25072;-74
2022/09/07 00:39:48;;;;;;;8.40;3.65;;;20.10;99.90;;;;;;5067699;28;25048;-73
2022/09/07 00:42:18;;;;;;;7.35;4.50;;;19.90;99.90;;;;;;5057483;28;25128;-72
2022/09/07 00:45:09;;;;;;;12.02;4.70;;;19.90;99.90;;;;;;5058780;28;25060;-72
2022/09/07 00:47:44;;;;;;;5.78;3.88;;;20.10;99.90;;;;;;5068457;28;25109;-73
2022/09/07 00:50:20;;;;;;;8.45;3.53;;;20.00;99.90;;;;;;5061670;28;25071;-72
2022/09/07 00:52:50;;;;;;;12.50;3.97;;;20.00;99.90;;;;;;5073586;28;25170;-73
2022/09/07 00:55:18;;;;;;;5.82;4.18;;;20.00;99.90;;;;;;5070827;28;25085;-73
2022/09/07 00:57:48;;;;;;;11.95;4.15;;;19.90;99.90;;;;;;5064462;28;25092;-74
2022/09/07 01:00:14;;;;;;;7.50;3.72;;;19.90;99.90;;;;;;5083444;28;25180;-74
2022/09/07 01:02:40;;;;;;;8.55;4.43;;;20.00;99.90;;;;;;5085708;28;25070;-72
2022/09/07 01:05:14;;;;;;;12.63;4.80;;;20.00;99.90;;;;;;5071207;28;25059;-71
2022/09/07 01:07:40;;;;;;;9.25;4.22;;;20.00;99.90;;;;;;5068258;28;25140;-71
2022/09/07 01:10:08;;;;;;;6.35;3.97;;;20.10;99.90;;;;;;5063545;28;25091;-73
2022/09/07 01:12:33;;;;;;;8.52;3.58;;;19.90;99.90;;;;;;5067222;28;25040;-71
2022/09/07 01:14:59;;;;;;;6.55;3.65;;;19.90;99.90;;;;;;5063015;28;25080;-71
2022/09/07 01:17:50;;;;;;;4.00;2.90;;;19.90;99.90;;;;;;5057845;28;25068;-72
2022/09/07 01:20:38;;;;;;;13.05;3.47;;;19.90;99.90;;;;;;5056573;28;25059;-72
2022/09/07 01:23:42;;;;;;;7.57;4.22;;;20.10;99.90;;;;;;5054739;28;25058;-71
2022/09/07 01:26:25;;;;;;;6.55;2.78;;;20.10;99.90;;;;;;5055064;28;25062;-72
2022/09/07 01:29:01;;;;;;;8.15;3.72;;;20.40;99.90;;;;;;5060209;28;25144;-71
2022/09/07 01:31:40;;;;;;;8.10;3.45;;;20.50;99.90;;;;;;5063192;28;25074;-71
2022/09/07 01:34:21;;;;;;;7.75;3.20;;;20.50;99.90;;;;;;5057273;28;25080;-73
2022/09/07 01:37:06;;;;;;;5.32;3.03;;;20.50;99.90;;;;;;5062422;28;25071;-73
2022/09/07 01:39:45;;;;;;;7.32;3.00;;;20.30;99.90;;;;;;5059850;28;25066;-73
2022/09/07 01:42:16;;;;;;;9.13;3.85;;;20.20;99.90;;;;;;5055362;28;25102;-73
2022/09/07 01:44:58;;;;;;;4.57;3.30;;;20.20;99.90;;;;;;5057206;28;25104;-73
2022/09/07 01:47:48;;;;;;;8.40;3.00;;;20.00;99.90;;;;;;5055837;28;25138;-72
2022/09/07 01:50:19;;;;;;;4.22;2.40;;;19.90;99.90;;;;;;5056475;28;25044;-73
2022/09/07 01:52:51;;;;;;;4.45;2.67;;;19.80;99.90;;;;;;5057858;28;25137;-72
2022/09/07 01:55:23;;;;;;;7.50;3.13;;;19.60;99.90;;;;;;5048024;28;25068;-73
2022/09/07 01:58:11;;;;;;;6.63;3.33;;;19.80;99.90;;;;;;5067522;28;25094;-73
2022/09/07 02:00:42;;;;;;;6.53;2.78;;;19.80;99.90;;;;;;5060622;28;25067;-73
2022/09/07 02:03:18;;;;;;;4.35;2.65;;;19.80;99.90;;;;;;5069754;28;25067;-73
2022/09/07 02:06:10;;;;;;;6.30;3.20;;;19.80;99.90;;;;;;5053442;28;25082;-72
2022/09/07 02:08:51;;;;;;;2.97;2.20;;;19.80;99.90;;;;;;5060610;28;25113;-73
2022/09/07 02:11:20;;;;;;;2.67;2.43;;;19.80;99.90;;;;;;5060386;28;25053;-73
2022/09/07 02:14:02;;;;;;;9.00;3.10;;;19.80;99.90;;;;;;5057624;28;25111;-75
2022/09/07 02:16:30;;;;;;;3.63;2.17;;;19.60;99.90;;;;;;5071031;28;25096;-72
2022/09/07 02:19:07;;;;;;;3.58;1.90;;;19.60;99.90;;;;;;5053852;28;25121;-73
2022/09/07 02:21:40;;;;;;;6.07;2.70;;;19.70;99.90;;;;;;5067181;28;25063;-71
2022/09/07 02:24:22;;;;;;;3.40;2.65;;;19.70;99.90;;;;;;5056755;28;25142;-73
2022/09/07 02:26:50;;;;;;;4.85;3.60;;;19.90;99.90;;;;;;5063692;28;25093;-74
2022/09/07 02:29:16;;;;;;;7.95;3.53;;;19.80;99.90;;;;;;5060882;28;25061;-73
2022/09/07 02:31:41;;;;;;;5.70;3.38;;;20.30;99.90;;;;;;5064458;28;25063;-74
2022/09/07 02:34:07;;;;;;;7.75;3.08;;;20.30;99.90;;;;;;5062537;28;25155;-74
2022/09/07 02:36:38;;;;;;;6.15;3.78;;;20.50;99.90;;;;;;5065115;28;25094;-73
2022/09/07 02:39:04;;;;;;;7.07;3.10;;;20.50;99.90;;;;;;5052089;28;25126;-73
2022/09/07 02:41:31;;;;;;;7.60;3.20;;;20.70;99.90;;;;;;5067091;28;25046;-73
2022/09/07 02:43:57;;;;;;;8.00;3.17;;;20.70;99.90;;;;;;5065387;28;25130;-73
2022/09/07 02:46:42;;;;;;;7.15;3.78;;;20.80;99.90;;;;;;5051221;28;25091;-74
2022/09/07 02:49:21;;;;;;;7.15;3.38;;;20.70;99.90;;;;;;5062698;28;25063;-73
2022/09/07 02:52:40;;;;;;;5.60;3.22;;;20.80;99.90;;;;;;5058891;28;25060;-72
2022/09/07 02:55:29;;;;;;;8.63;3.80;;;20.70;99.90;;;;;;5012030;28;25074;-74
2022/09/07 02:58:17;;;;;;;9.43;4.38;;;20.80;99.90;;;;;;5059285;28;25172;-74
2022/09/07 03:00:55;;;;;;;9.52;4.82;;;20.80;99.90;;;;;;5064294;28;25077;-73
2022/09/07 03:03:39;;;;;;;10.48;4.63;;;20.70;99.90;;;;;;5066188;28;25055;-73
2022/09/07 03:06:13;;;;;;;10.75;4.80;;;20.80;99.90;;;;;;5052864;28;25092;-73
2022/09/07 03:08:45;;;;;;;9.23;5.10;;;20.90;99.90;;;;;;5060323;28;25143;-72
2022/09/07 03:11:13;;;;;;;13.77;5.47;;;20.80;99.90;;;;;;5059417;28;25044;-73
2022/09/07 03:13:38;;;;;;;8.45;4.78;;;20.60;99.90;;;;;;5057477;28;25047;-72
2022/09/07 03:16:04;;;;;;;8.32;4.60;;;20.40;99.90;;;;;;5066334;28;25066;-74
2022/09/07 03:18:29;;;;;;;9.35;4.55;;;20.40;99.90;;;;;;5058941;28;25084;-73
2022/09/07 03:20:55;;;;;;;6.85;4.15;;;20.40;99.90;;;;;;5057826;28;25060;-73
2022/09/07 03:23:21;;;;;;;4.38;3.22;;;20.40;99.90;;;;;;5064871;28;25131;-73
2022/09/07 03:25:47;;;;;;;7.90;4.00;;;20.30;99.90;;;;;;5062143;28;25191;-72
2022/09/07 03:28:13;;;;;;;9.30;4.00;;;20.30;99.90;;;;;;5063248;28;25057;-72
2022/09/07 03:30:44;;;;;;;7.45;3.65;;;20.20;99.90;;;;;;5059658;28;25049;-72
2022/09/07 03:33:10;;;;;;;3.95;3.05;;;20.30;99.90;;;;;;5061729;28;25116;-73
2022/09/07 03:35:36;;;;;;;5.60;3.42;;;20.20;99.90;;;;;;5060344;28;25134;-72
2022/09/07 03:38:01;;;;;;;4.72;3.78;;;20.20;99.90;;;;;;5061188;28;25152;-72
2022/09/07 03:40:27;;;;;;;4.57;3.25;;;20.10;99.90;;;;;;5058516;28;25080;-72
2022/09/07 03:42:52;;;;;;;6.10;3.63;;;20.10;99.90;;;;;;5047620;28;25170;-72
2022/09/07 03:45:18;;;;;;;7.10;3.60;;;20.10;99.90;;;;;;5053462;28;25095;-73
2022/09/07 03:47:44;;;;;;;8.50;3.95;;;20.10;99.90;;;;;;5053513;28;25066;-73
2022/09/07 03:50:09;;;;;;;6.55;3.53;;;19.90;99.90;;;;;;5057119;28;25062;-72
2022/09/07 03:52:36;;;;;;;5.25;3.17;;;20.00;99.90;;;;;;5056924;28;25055;-73
2022/09/07 03:55:02;;;;;;;6.35;2.90;;;20.10;99.90;;;;;;5064053;28;25064;-71
2022/09/07 03:57:27;;;;;;;7.28;2.95;;;20.00;99.90;;;;;;5058343;28;25065;-73
2022/09/07 03:59:53;;;;;;;6.30;2.85;;;20.00;99.90;;;;;;5062977;28;25074;-72
2022/09/07 04:02:18;;;;;;;3.53;2.72;;;20.00;99.90;;;;;;5055253;28;25059;-73
2022/09/07 04:04:47;;;;;;;5.95;3.05;;;19.90;99.90;;;;;;5063230;28;25087;-73
2022/09/07 04:07:14;;;;;;;4.45;3.33;;;19.70;99.90;;;;;;5057960;28;25128;-73
2022/09/07 04:09:40;;;;;;;4.50;3.22;;;19.90;99.90;;;;;;5060022;28;25079;-71
2022/09/07 04:12:06;;;;;;;5.78;3.22;;;19.70;99.90;;;;;;5066891;28;25054;-72
2022/09/07 04:14:31;;;;;;;8.02;3.92;;;19.70;99.90;;;;;;5061879;28;25159;-71
2022/09/07 04:16:57;;;;;;;7.50;3.75;;;19.80;99.90;;;;;;5054377;28;25081;-72
2022/09/07 04:19:23;;;;;;;10.63;4.20;;;19.70;99.90;;;;;;5066098;28;25091;-71
2022/09/07 04:21:48;;;;;;;7.18;4.40;;;19.70;99.90;;;;;;5056185;28;25110;-72
2022/09/07 04:24:15;;;;;;;6.07;4.13;;;19.60;99.90;;;;;;5068884;28;25099;-72
2022/09/07 04:26:42;;;;;;;7.43;4.78;;;19.50;99.90;;;;;;5063102;28;25124;-71
2022/09/07 04:29:09;;;;;;;6.43;4.75;;;19.50;99.90;;;;;;5065655;28;25075;-72
2022/09/07 04:31:35;;;;;;;9.05;4.70;;;19.60;99.90;;;;;;5061887;28;25078;-72
2022/09/07 04:34:01;;;;;;;8.25;4.18;;;19.50;99.90;;;;;;5064598;28;25062;-73
2022/09/07 04:36:27;;;;;;;10.07;4.57;;;19.50;99.90;;;;;;5066420;28;25060;-72
2022/09/07 04:39:00;;;;;;;5.90;4.60;;;19.30;99.90;;;;;;5056141;28;25067;-72
2022/09/07 04:41:27;;;;;;;9.95;4.90;;;19.60;99.90;;;;;;5064302;28;25073;-73
2022/09/07 04:43:59;;;;;;;11.13;5.43;;;19.50;99.90;;;;;;5065495;28;25054;-71
2022/09/07 04:46:26;;;;;;;10.48;5.25;;;19.50;99.90;;;;;;5054577;28;25163;-73
2022/09/07 04:48:57;;;;;;;11.32;5.22;;;19.60;99.90;;;;;;5065715;28;25079;-71
2022/09/07 04:51:27;;;;;;;9.82;4.72;;;19.40;99.90;;;;;;5065768;28;25108;-72
2022/09/07 04:53:54;;;;;;;8.13;5.07;;;19.40;99.90;;;;;;5069830;28;25068;-70
2022/09/07 04:56:21;;;;;;;8.48;5.35;;;19.40;99.90;;;;;;5065196;28;25075;-74
2022/09/07 04:58:47;;;;;;;9.45;5.28;;;19.30;99.90;;;;;;5069184;28;25069;-71
2022/09/07 05:01:16;;;;;;;10.85;6.13;;;19.50;99.90;;;;;;5060323;28;25136;-71
2022/09/07 05:03:43;;;;;;;10.65;5.70;;;19.40;99.90;;;;;;5054150;28;25107;-71
2022/09/07 05:06:09;;;;;;;8.73;5.88;;;19.50;99.90;;;;;;5067113;28;25062;-71
2022/09/07 05:08:43;;;;;;;14.48;6.13;;;19.40;99.90;;;;;;5065634;28;25068;-72
2022/09/07 05:11:10;;;;;;;10.60;5.43;;;19.40;99.90;;;;;;5062757;28;25094;-71
2022/09/07 05:13:36;;;;;;;9.40;6.05;;;19.30;99.90;;;;;;5049515;28;25145;-71
2022/09/07 05:16:17;;;;;;;12.38;6.78;;;19.30;99.90;;;;;;5058502;28;25062;-72
2022/09/07 05:18:43;;;;;;;14.25;7.18;;;19.20;99.90;;;;;;5060028;28;25063;-74
2022/09/07 05:21:18;;;;;;;12.45;6.63;;;19.20;99.90;;;;;;5057207;28;25107;-72
2022/09/07 05:23:44;;;;;;;10.80;6.45;;;19.30;99.90;;;;;;5056971;28;25057;-71
2022/09/07 05:26:11;;;;;;;11.82;6.90;;;19.30;99.90;;;;;;5062311;28;25062;-71
2022/09/07 05:28:37;;;;;;;11.85;6.75;;;19.40;99.90;;;;;;5059435;28;25057;-71
2022/09/07 05:31:06;;;;;;;17.77;8.57;;;19.30;99.90;;;;;;5061532;28;25067;-71
2022/09/07 05:33:32;;;;;;;16.02;8.45;;;19.20;99.90;;;;;;5061658;28;25064;-73
2022/09/07 05:35:59;;;;;;;23.42;9.23;;;19.30;99.90;;;;;;5070549;28;25056;-71
2022/09/07 05:38:25;;;;;;;17.25;8.88;;;19.30;99.90;;;;;;5067682;28;25098;-72
2022/09/07 05:40:51;;;;;;;17.92;8.75;;;19.40;99.90;;;;;;5071559;28;25081;-72
2022/09/07 05:43:17;;;;;;;21.13;9.70;;;19.30;99.90;;;;;;5074937;28;25076;-72
2022/09/07 05:45:42;;;;;;;16.17;8.77;;;19.20;99.90;;;;;;5076331;28;25105;-71
2022/09/07 05:48:08;;;;;;;19.38;9.30;;;19.20;99.90;;;;;;5071685;28;25124;-71
2022/09/07 05:50:34;;;;;;;19.70;10.50;;;19.20;99.90;;;;;;5058798;28;25051;-73
2022/09/07 05:53:00;;;;;;;22.25;9.95;;;19.20;99.90;;;;;;5069153;28;25102;-71
2022/09/07 05:55:26;;;;;;;17.42;10.75;;;19.20;99.90;;;;;;5067561;28;25049;-72
2022/09/07 05:57:52;;;;;;;16.60;9.65;;;19.20;99.90;;;;;;5064287;28;25074;-72
2022/09/07 06:00:20;;;;;;;23.45;11.05;;;19.10;99.90;;;;;;5063935;28;25065;-73
2022/09/07 06:02:48;;;;;;;20.50;11.38;;;19.20;99.90;;;;;;5070800;28;25073;-72
2022/09/07 06:05:14;;;;;;;20.58;11.73;;;19.10;99.90;;;;;;5065078;28;25066;-71
2022/09/07 06:07:40;;;;;;;23.00;11.32;;;19.20;99.90;;;;;;5067379;28;25086;-72
2022/09/07 06:10:06;;;;;;;19.80;10.65;;;19.30;99.90;;;;;;5068783;28;25074;-71
2022/09/07 06:12:32;;;;;;;23.65;10.77;;;19.30;99.90;;;;;;5069779;28;25060;-71
2022/09/07 06:15:00;;;;;;;22.75;10.30;;;19.30;99.90;;;;;;5054459;28;25059;-72
2022/09/07 06:17:28;;;;;;;20.05;9.48;;;19.50;99.90;;;;;;5061871;28;25098;-71
2022/09/07 06:19:54;;;;;;;16.55;10.40;;;19.50;99.90;;;;;;5059084;28;25068;-71
2022/09/07 06:22:20;;;;;;;18.83;10.32;;;19.40;99.90;;;;;;5056002;28;25058;-71
2022/09/07 06:24:45;;;;;;;17.95;10.77;;;19.40;99.90;;;;;;5056270;28;25054;-72
2022/09/07 06:27:11;;;;;;;17.30;9.45;;;19.40;99.90;;;;;;5053805;28;25059;-71
2022/09/07 06:29:37;;;;;;;15.85;9.57;;;19.60;99.90;;;;;;5065358;28;25083;-72
2022/09/07 06:32:03;;;;;;;14.68;9.35;;;19.60;99.90;;;;;;5059427;28;25066;-71
2022/09/07 06:34:28;;;;;;;17.83;10.07;;;19.50;99.90;;;;;;5059611;28;25169;-72
2022/09/07 06:36:54;;;;;;;17.60;10.23;;;19.70;99.90;;;;;;5060654;28;25079;-72
2022/09/07 06:39:19;;;;;;;14.77;9.30;;;19.50;99.90;;;;;;5053907;28;25062;-70
2022/09/07 06:41:45;;;;;;;20.00;11.45;;;19.70;99.90;;;;;;5060939;28;25069;-72
2022/09/07 06:44:11;;;;;;;18.92;10.80;;;19.50;99.90;;;;;;5062214;28;25060;-72
2022/09/07 06:46:37;;;;;;;15.27;10.30;;;19.40;99.90;;;;;;5059926;28;25061;-73
2022/09/07 06:49:02;;;;;;;20.15;11.23;;;19.70;99.90;;;;;;5069538;28;25076;-71
2022/09/07 06:51:28;;;;;;;17.63;10.73;;;19.60;99.90;;;;;;5061824;28;25085;-73
2022/09/07 06:53:57;;;;;;;22.27;10.65;;;19.70;99.90;;;;;;5061238;28;25070;-70
2022/09/07 06:56:23;;;;;;;20.48;12.30;;;19.60;99.90;;;;;;5058583;28;25068;-72
2022/09/07 06:58:53;;;;;;;19.98;11.85;;;19.70;99.90;;;;;;5068264;28;25154;-70
2022/09/07 07:01:20;;;;;;;24.08;12.13;;;19.70;99.90;;;;;;5059808;28;25058;-72
2022/09/07 07:03:46;;;;;;;18.80;11.25;;;19.80;99.90;;;;;;5061734;28;25060;-72
2022/09/07 07:06:12;;;;;;;21.55;11.88;;;19.80;99.90;;;;;;5055816;28;25056;-71
2022/09/07 07:08:39;;;;;;;18.50;11.52;;;19.70;99.90;;;;;;5057101;28;25171;-71
2022/09/07 07:11:10;;;;;;;23.25;12.07;;;19.80;99.90;;;;;;5059183;28;25063;-71
2022/09/07 07:13:37;;;;;;;21.48;13.10;;;19.90;99.90;;;;;;5057316;28;25069;-71
2022/09/07 07:16:14;;;;;;;20.10;11.05;;;19.80;99.90;;;;;;5058123;28;25051;-70
2022/09/07 07:18:41;;;;;;;22.90;13.50;;;20.00;99.90;;;;;;5062679;28;25106;-72
2022/09/07 07:21:10;;;;;;;20.10;11.90;;;20.20;99.90;;;;;;5077870;28;25056;-69
2022/09/07 07:23:36;;;;;;;21.45;13.10;;;20.00;99.90;;;;;;5061003;28;25096;-72
2022/09/07 07:26:02;;;;;;;24.20;13.07;;;20.30;99.90;;;;;;5056346;28;25091;-70
2022/09/07 07:28:28;;;;;;;20.98;13.02;;;20.40;99.90;;;;;;5057398;28;25064;-73
2022/09/07 07:30:58;;;;;;;26.70;13.23;;;20.20;99.90;;;;;;5062811;28;25075;-71
2022/09/07 07:33:29;;;;;;;27.40;13.13;;;20.00;99.90;;;;;;5076499;28;25090;-71
2022/09/07 07:36:13;;;;;;;23.88;13.10;;;20.20;99.90;;;;;;5064444;28;25083;-71
2022/09/07 07:38:40;;;;;;;20.77;12.25;;;20.20;99.90;;;;;;5054809;28;25051;-71
2022/09/07 07:41:06;;;;;;;20.98;12.70;;;20.30;99.90;;;;;;5074025;28;25093;-72
2022/09/07 07:43:32;;;;;;;25.40;14.32;;;20.20;99.90;;;;;;5062241;28;25091;-70
2022/09/07 07:45:58;;;;;;;27.13;14.73;;;20.10;99.90;;;;;;5078238;28;25057;-70
2022/09/07 07:48:28;;;;;;;22.42;14.50;;;20.20;99.90;;;;;;5066782;28;25050;-72
2022/09/07 07:51:11;;;;;;;29.70;14.75;;;20.30;99.90;;;;;;5057841;28;25170;-70
2022/09/07 07:53:39;;;;;;;22.02;13.98;;;20.30;99.90;;;;;;5063042;28;25068;-72
2022/09/07 07:56:05;;;;;;;27.33;15.40;;;20.50;99.90;;;;;;5062060;28;25051;-71
2022/09/07 07:58:32;;;;;;;29.33;15.40;;;20.60;99.90;;;;;;5073140;28;25143;-72
2022/09/07 08:01:07;;;;;;;26.60;16.05;;;20.60;99.90;;;;;;5058653;28;25108;-71
2022/09/07 08:03:37;;;;;;;28.85;16.40;;;20.60;99.90;;;;;;5057221;28;25076;-73
2022/09/07 08:06:08;;;;;;;31.10;16.55;;;20.60;99.90;;;;;;5056681;28;25053;-70
2022/09/07 08:08:35;;;;;;;30.25;16.48;;;20.60;99.90;;;;;;5056406;28;25086;-69
2022/09/07 08:11:05;;;;;;;26.25;16.17;;;20.60;99.90;;;;;;5058411;28;25145;-71
2022/09/07 08:13:32;;;;;;;27.38;16.55;;;20.80;99.90;;;;;;5051779;28;25064;-71
2022/09/07 08:15:58;;;;;;;25.98;15.95;;;20.90;99.90;;;;;;5065404;28;25282;-69
2022/09/07 08:18:24;;;;;;;29.52;17.02;;;20.80;99.90;;;;;;5061489;28;25086;-71
2022/09/07 08:20:49;;;;;;;25.35;16.52;;;21.00;99.90;;;;;;5060352;28;25060;-70
2022/09/07 08:23:16;;;;;;;25.98;16.13;;;21.00;99.90;;;;;;5062257;28;25117;-72
2022/09/07 08:25:55;;;;;;;27.23;15.68;;;21.20;99.90;;;;;;5064967;28;25126;-72
2022/09/07 08:28:22;;;;;;;26.08;14.57;;;21.10;99.90;;;;;;5054605;28;25048;-71
2022/09/07 08:30:48;;;;;;;27.50;15.98;;;21.00;99.90;;;;;;5058659;28;25064;-73
2022/09/07 08:33:14;;;;;;;22.58;15.90;;;21.20;99.90;;;;;;5057120;28;25064;-72
2022/09/07 08:35:39;;;;;;;24.15;13.80;;;21.10;99.90;;;;;;5057558;28;25137;-71
2022/09/07 08:38:05;;;;;;;22.02;13.70;;;21.00;99.90;;;;;;5061635;28;25084;-73
2022/09/07 08:40:35;;;;;;;21.50;13.13;;;21.00;99.90;;;;;;5055940;28;25175;-72
2022/09/07 08:43:22;;;;;;;19.95;12.57;;;21.20;99.90;;;;;;5051832;28;25132;-75
2022/09/07 08:45:51;;;;;;;18.98;14.18;;;21.40;99.90;;;;;;5061881;28;25147;-76
2022/09/07 08:48:22;;;;;;;17.85;11.73;;;21.70;99.90;;;;;;5050873;28;25058;-75
2022/09/07 08:51:09;;;;;;;21.52;12.52;;;21.40;99.90;;;;;;5060171;28;25127;-74
2022/09/07 08:53:43;;;;;;;19.08;11.95;;;21.20;99.90;;;;;;5061630;28;25090;-74
2022/09/07 08:56:16;;;;;;;23.52;11.18;;;21.30;99.90;;;;;;5056041;28;25062;-76
2022/09/07 08:58:52;;;;;;;17.70;10.93;;;21.50;99.90;;;;;;5078381;28;25076;-72
2022/09/07 09:01:40;;;;;;;15.25;8.75;;;21.70;99.90;;;;;;5053479;28;25074;-73
2022/09/07 09:04:20;;;;;;;12.68;8.15;;;21.30;99.90;;;;;;5060361;28;25063;-72
2022/09/07 09:07:17;;;;;;;14.27;8.20;;;21.40;99.90;;;;;;5061158;28;25142;-74
2022/09/07 09:10:18;;;;;;;16.00;7.57;;;21.30;99.90;;;;;;5056303;28;25081;-74
2022/09/07 09:12:55;;;;;;;16.52;7.63;;;21.40;99.90;;;;;;5064577;28;25064;-73
2022/09/07 09:15:31;;;;;;;13.07;6.88;;;21.70;99.90;;;;;;5058168;28;25058;-73
2022/09/07 09:18:12;;;;;;;11.43;6.57;;;21.70;99.90;;;;;;5065304;28;25081;-74
2022/09/07 09:20:48;;;;;;;10.48;6.43;;;21.80;99.90;;;;;;5061304;28;25067;-73
2022/09/07 09:23:15;;;;;;;12.10;6.30;;;21.70;99.90;;;;;;5062897;28;25159;-72
2022/09/07 09:25:57;;;;;;;9.88;6.25;;;21.80;99.90;;;;;;5067237;28;25086;-73
2022/09/07 09:28:23;;;;;;;9.35;5.18;;;21.80;99.90;;;;;;5064801;28;25044;-74
2022/09/07 09:30:49;;;;;;;9.82;5.20;;;22.00;99.90;;;;;;5058064;28;25074;-74
2022/09/07 09:33:21;;;;;;;7.70;3.88;;;22.00;99.90;;;;;;5059549;28;25067;-74
2022/09/07 09:35:50;;;;;;;7.18;3.00;;;21.90;99.90;;;;;;5061882;28;25152;-74
2022/09/07 09:38:39;;;;;;;9.25;3.10;;;21.90;99.90;;;;;;5060354;28;25141;-74
2022/09/07 09:41:07;;;;;;;9.50;3.85;;;21.90;99.90;;;;;;5056322;28;25176;-73
2022/09/07 09:43:33;;;;;;;5.25;2.65;;;22.00;99.90;;;;;;5056325;28;25093;-76
2022/09/07 09:46:00;;;;;;;6.60;2.15;;;21.90;99.90;;;;;;5054605;28;25066;-74
2022/09/07 09:48:38;;;;;;;2.88;1.67;;;21.60;99.90;;;;;;5059556;28;25076;-76
2022/09/07 09:51:06;;;;;;;7.55;2.05;;;21.80;99.90;;;;;;5054972;28;25062;-74
2022/09/07 09:53:36;;;;;;;9.52;2.45;;;21.80;99.90;;;;;;5054298;28;25066;-74
2022/09/07 09:56:06;;;;;;;8.43;2.10;;;21.80;99.90;;;;;;5057365;28;25064;-74
2022/09/07 09:58:34;;;;;;;6.07;1.98;;;21.80;99.90;;;;;;5068346;28;25089;-75
2022/09/07 10:01:03;;;;;;;8.40;2.75;;;21.70;99.90;;;;;;5056609;28;25132;-77
2022/09/07 10:03:31;;;;;;;5.88;1.75;;;21.90;99.90;;;;;;5058618;28;25061;-76
2022/09/07 10:05:58;;;;;;;6.88;2.17;;;21.80;99.90;;;;;;5057462;28;25069;-75
2022/09/07 10:08:35;;;;;;;5.45;1.88;;;21.80;99.90;;;;;;5052997;28;25064;-77
2022/09/07 10:11:04;;;;;;;7.93;1.67;;;21.70;99.90;;;;;;5060006;28;25061;-76
2022/09/07 10:13:53;;;;;;;6.47;1.70;;;21.70;99.90;;;;;;5062796;28;25132;-75
2022/09/07 10:16:33;;;;;;;8.07;1.77;;;21.80;99.90;;;;;;5057333;28;25098;-76
2022/09/07 10:18:59;;;;;;;11.40;2.45;;;21.70;99.90;;;;;;5062737;28;25164;-73
2022/09/07 10:21:28;;;;;;;3.63;1.50;;;21.70;99.90;;;;;;5061726;28;25063;-74
2022/09/07 10:24:12;;;;;;;5.13;1.38;;;21.80;99.90;;;;;;5066979;28;25105;-74
2022/09/07 10:26:38;;;;;;;6.40;1.55;;;21.70;99.90;;;;;;5067287;28;25074;-73
2022/09/07 10:29:28;;;;;;;4.97;1.35;;;21.60;99.90;;;;;;5063601;28;25065;-75
2022/09/07 10:32:20;;;;;;;8.77;1.35;;;21.70;99.90;;;;;;5059091;28;25070;-74
2022/09/07 10:34:45;;;;;;;3.33;1.20;;;21.80;99.90;;;;;;5057607;28;25089;-78
2022/09/07 10:37:33;;;;;;;5.20;1.38;;;21.70;99.90;;;;;;5056899;28;25066;-74
2022/09/07 10:40:21;;;;;;;5.70;1.38;;;21.80;99.90;;;;;;5064978;28;25054;-74
2022/09/07 10:43:15;;;;;;;10.27;1.75;;;21.80;99.90;;;;;;5060373;28;25076;-74
2022/09/07 10:45:50;;;;;;;6.82;1.25;;;21.80;99.90;;;;;;5044776;28;25072;-75
2022/09/07 10:48:34;;;;;;;4.15;1.63;;;22.00;99.90;;;;;;5051394;28;25090;-76
2022/09/07 10:51:04;;;;;;;5.13;1.70;;;22.10;99.90;;;;;;5061159;28;25120;-75
2022/09/07 10:53:41;;;;;;;9.52;1.70;;;22.20;99.90;;;;;;5058854;28;25058;-75
2022/09/07 10:56:16;;;;;;;9.93;2.17;;;22.40;99.90;;;;;;5068525;28;25159;-76
2022/09/07 10:59:15;;;;;;;3.58;1.58;;;22.60;99.90;;;;;;5064113;28;25087;-73
2022/09/07 11:02:12;;;;;;;8.30;1.95;;;22.70;99.90;;;;;;5060980;28;25085;-78
2022/09/07 11:04:45;;;;;;;4.45;1.60;;;22.80;99.90;;;;;;5062872;28;25056;-74
2022/09/07 11:07:45;;;;;;;8.93;2.35;;;22.70;99.90;;;;;;5056076;28;25508;-75
2022/09/07 11:10:36;;;;;;;9.77;1.98;;;22.70;99.90;;;;;;5061105;28;25069;-76
2022/09/07 11:13:05;;;;;;;6.55;2.35;;;22.80;99.90;;;;;;5065672;28;25063;-77
2022/09/07 11:15:40;;;;;;;5.15;1.27;;;22.80;99.90;;;;;;5056484;28;25097;-79
2022/09/07 11:18:35;;;;;;;7.32;2.03;;;22.80;99.90;;;;;;5064607;28;25060;-78
2022/09/07 11:21:05;;;;;;;4.00;1.77;;;23.20;99.90;;;;;;5058981;28;25095;-75
2022/09/07 11:23:35;;;;;;;4.43;1.58;;;23.10;99.90;;;;;;5064277;28;25098;-76
2022/09/07 11:26:26;;;;;;;7.20;1.83;;;23.30;99.90;;;;;;5065254;28;25151;-77
2022/09/07 11:29:14;;;;;;;7.43;1.45;;;23.40;99.90;;;;;;5066180;28;25081;-77
2022/09/07 11:32:15;;;;;;;6.32;1.20;;;23.80;99.90;;;;;;5069709;28;25065;-77
2022/09/07 11:34:51;;;;;;;4.53;2.70;;;24.20;99.90;;;;;;5058903;28;25082;-77
2022/09/07 11:37:32;;;;;;;8.13;1.48;;;24.40;99.90;;;;;;5069162;28;25074;-78
2022/09/07 11:40:10;;;;;;;3.45;1.20;;;24.60;99.90;;;;;;5067657;28;25071;-80
2022/09/07 11:42:48;;;;;;;5.72;1.40;;;24.70;99.90;;;;;;5069102;28;25070;-79
2022/09/07 11:45:30;;;;;;;7.22;2.03;;;24.90;99.90;;;;;;5070025;28;25077;-79
2022/09/07 11:48:06;;;;;;;4.35;1.40;;;25.30;99.90;;;;;;5063262;28;25068;-76
2022/09/07 11:50:38;;;;;;;7.65;1.75;;;25.60;99.90;;;;;;5066441;28;25098;-80
2022/09/07 11:53:06;;;;;;;6.47;1.75;;;25.40;99.90;;;;;;5067288;28;25078;-77
2022/09/07 11:55:37;;;;;;;2.55;1.20;;;25.10;99.90;;;;;;5064212;28;25106;-80
2022/09/07 11:58:27;;;;;;;6.72;1.35;;;25.20;99.90;;;;;;5062473;28;25105;-79
2022/09/07 12:01:20;;;;;;;5.57;1.63;;;25.90;99.90;;;;;;5064647;28;25053;-79
2022/09/07 12:04:08;;;;;;;8.20;1.77;;;26.30;99.90;;;;;;5059415;28;25054;-80
2022/09/07 12:07:11;;;;;;;3.67;1.38;;;26.00;99.90;;;;;;5063528;28;25122;-76
2022/09/07 12:09:42;;;;;;;3.00;1.20;;;26.00;99.90;;;;;;5059231;28;25071;-78
2022/09/07 12:12:34;;;;;;;2.60;1.20;;;25.90;99.90;;;;;;5061014;28;25099;-79
2022/09/07 12:15:14;;;;;;;6.53;1.65;;;25.80;99.90;;;;;;5068055;28;25090;-76
2022/09/07 12:18:15;;;;;;;3.50;1.40;;;26.10;99.90;;;;;;5063671;28;25056;-78
2022/09/07 12:20:46;;;;;;;4.03;1.70;;;26.50;99.90;;;;;;5066157;28;25129;-76
2022/09/07 12:23:14;;;;;;;6.88;1.83;;;27.00;99.90;;;;;;5067790;28;25128;-76
2022/09/07 12:25:41;;;;;;;1.80;1.15;;;26.80;99.90;;;;;;5052745;28;25049;-76
2022/09/07 12:28:22;;;;;;;4.03;1.50;;;26.60;99.90;;;;;;5052254;28;25061;-77
2022/09/07 12:30:58;;;;;;;4.30;1.45;;;25.70;99.90;;;;;;5063701;28;25069;-78
2022/09/07 12:33:27;;;;;;;2.78;1.38;;;25.80;99.90;;;;;;5068306;28;25064;-77
2022/09/07 12:35:56;;;;;;;5.88;1.50;;;25.30;99.90;;;;;;5061290;28;25093;-77
2022/09/07 12:39:04;;;;;;;6.05;1.05;;;24.80;99.90;;;;;;5064806;28;25064;-77
2022/09/07 12:41:42;;;;;;;2.95;1.20;;;24.80;99.90;;;;;;5059201;28;25072;-79
2022/09/07 12:44:15;;;;;;;3.10;1.40;;;24.70;99.90;;;;;;5057162;28;25062;-77
2022/09/07 12:46:47;;;;;;;3.95;1.30;;;24.80;99.90;;;;;;5061589;28;25057;-77
2022/09/07 12:49:35;;;;;;;;;;;25.00;99.90;;;;;;5057652;28;25078;-78
2022/09/07 12:52:09;;;;;;;3.08;1.40;;;25.10;99.90;;;;;;5060722;28;25123;-74
2022/09/07 12:54:35;;;;;;;4.45;1.35;;;24.90;99.90;;;;;;5059784;28;25170;-77
2022/09/07 12:57:14;;;;;;;3.90;1.30;;;25.20;99.90;;;;;;5062352;28;25073;-75
2022/09/07 13:00:00;;;;;;;4.88;0.90;;;24.90;99.90;;;;;;5059550;28;25083;-77
2022/09/07 13:02:32;;;;;;;7.22;1.52;;;24.70;99.90;;;;;;5063239;28;25064;-78
2022/09/07 13:05:35;;;;;;;3.67;1.20;;;24.80;99.90;;;;;;5058547;28;25066;-76
2022/09/07 13:08:22;;;;;;;2.70;1.13;;;25.20;99.90;;;;;;5058949;28;25069;-78